Terminal Aerodrome Forecast
Issued by NWS

Current Version | Previous Version | Text Only | Print | Product List | Glossary On
Versions: 1 2 3 4 5 6 7 8 9 10 11 12 13 14 15 16 17
484
FTUS46 KMFR 191627 AAA
TAFLMT
TAF AMD
KLMT 191627Z 1916/2012 17006KT P6SM VCSH SCT025 BKN035 BKN060
     FM200000 18008KT P6SM BKN060
     FM200500 16014G20KT P6SM SCT040 OVC080=

USA.gov is the U.S. government's official web portal to all federal, state and local government web resources and services.